Time;durP1;ratioP1;P1;durP2;ratioP2;P2;SDS_P1;SDS_P2;PMS_P1;PMS_P2;Temp;Humidity;BMP_temperature;BMP_pressure;BME280_temperature;BME280_humidity;BME280_pressure;Samples;Min_cycle;Max_cycle;Signal;HPM_P1;HPM_P2
2024/04/06 00:00:50;;;;;;;8.27;1.92;;;14.20;99.90;;;;;;5074359;28;20038;-37
2024/04/06 00:03:15;;;;;;;4.80;1.20;;;14.30;99.90;;;;;;5061837;28;20025;-49
2024/04/06 00:05:41;;;;;;;3.83;1.40;;;14.30;99.90;;;;;;5053902;28;20025;-38
2024/04/06 00:08:06;;;;;;;9.18;1.80;;;14.30;99.90;;;;;;5054103;28;20303;-38
2024/04/06 00:10:32;;;;;;;7.03;2.22;;;14.30;99.90;;;;;;5053696;28;20013;-37
2024/04/06 00:12:57;;;;;;;3.05;1.50;;;14.40;99.90;;;;;;5053621;28;20025;-37
2024/04/06 00:15:23;;;;;;;2.50;1.10;;;14.30;99.90;;;;;;5053689;28;20466;-36
2024/04/06 00:17:49;;;;;;;3.65;1.38;;;14.40;99.90;;;;;;5053669;28;20079;-36
2024/04/06 00:20:14;;;;;;;5.38;1.73;;;14.40;99.90;;;;;;5053795;28;20013;-37
2024/04/06 00:22:40;;;;;;;5.05;1.40;;;14.40;99.90;;;;;;5043083;28;20466;-37
2024/04/06 00:25:05;;;;;;;8.90;1.70;;;14.40;99.90;;;;;;5033762;28;20044;-37
2024/04/06 00:27:32;;;;;;;8.48;2.13;;;14.40;99.90;;;;;;5033696;28;20509;-37
2024/04/06 00:29:59;;;;;;;3.17;1.80;;;14.40;99.90;;;;;;5033751;28;20108;-42
2024/04/06 00:32:25;;;;;;;9.50;2.65;;;14.50;99.90;;;;;;5033514;28;20029;-36
2024/04/06 00:34:51;;;;;;;6.38;1.60;;;14.50;99.90;;;;;;5033411;28;20037;-37
2024/04/06 00:37:16;;;;;;;1.95;1.40;;;14.50;99.90;;;;;;5045319;28;20017;-37
2024/04/06 00:39:42;;;;;;;5.35;1.75;;;14.60;99.90;;;;;;5053292;28;20477;-53
2024/04/06 00:42:10;;;;;;;9.90;2.45;;;14.60;99.90;;;;;;5053242;28;20078;-57
2024/04/06 00:44:36;;;;;;;8.90;1.55;;;14.60;99.90;;;;;;5051820;28;20033;-54
2024/04/06 00:47:02;;;;;;;6.95;2.00;;;14.60;99.90;;;;;;5061637;28;20035;-52
2024/04/06 00:49:28;;;;;;;4.32;2.35;;;14.60;99.90;;;;;;5071032;28;20017;-54
2024/04/06 00:51:54;;;;;;;6.35;1.90;;;14.60;99.90;;;;;;5051150;28;20025;-49
2024/04/06 00:54:20;;;;;;;8.27;2.03;;;14.60;99.90;;;;;;5048507;28;20032;-53
2024/04/06 00:56:49;;;;;;;9.88;2.03;;;14.60;99.90;;;;;;5054112;28;20052;-52
2024/04/06 00:59:15;;;;;;;11.50;2.17;;;14.60;99.90;;;;;;5052710;28;20025;-51
2024/04/06 01:01:41;;;;;;;5.45;2.42;;;14.70;99.90;;;;;;5052538;28;20095;-53
2024/04/06 01:04:07;;;;;;;7.13;1.75;;;14.60;99.90;;;;;;5052399;28;20105;-50
2024/04/06 01:06:32;;;;;;;5.00;2.00;;;14.70;99.90;;;;;;5052447;28;20143;-53
2024/04/06 01:08:58;;;;;;;4.53;2.35;;;14.60;99.90;;;;;;5052524;28;20017;-54
2024/04/06 01:11:24;;;;;;;5.25;2.20;;;14.60;99.90;;;;;;5052548;28;20037;-38
2024/04/06 01:13:50;;;;;;;4.38;2.63;;;14.70;99.90;;;;;;5052517;28;20477;-37
2024/04/06 01:16:15;;;;;;;4.68;2.13;;;14.70;99.90;;;;;;5052640;28;20079;-38
2024/04/06 01:18:41;;;;;;;4.00;2.13;;;14.70;99.90;;;;;;5052519;28;20075;-38
2024/04/06 01:21:07;;;;;;;7.55;3.08;;;14.70;99.90;;;;;;5052461;28;20021;-37
2024/04/06 01:23:35;;;;;;;13.48;2.65;;;14.70;99.90;;;;;;5052794;28;20025;-37
2024/04/06 01:26:01;;;;;;;6.35;2.05;;;14.70;99.90;;;;;;5052488;28;20092;-37
2024/04/06 01:28:27;;;;;;;2.53;2.30;;;14.70;99.90;;;;;;5052244;28;20072;-36
2024/04/06 01:30:53;;;;;;;9.15;2.63;;;14.70;99.90;;;;;;5052425;28;20414;-36
2024/04/06 01:33:19;;;;;;;2.63;2.10;;;14.70;99.90;;;;;;5052320;28;20494;-36
2024/04/06 01:35:44;;;;;;;7.03;2.55;;;14.70;99.90;;;;;;5052333;28;20413;-37
2024/04/06 01:38:10;;;;;;;4.40;2.30;;;14.80;99.90;;;;;;5052200;28;20390;-37
2024/04/06 01:40:36;;;;;;;9.45;2.28;;;14.80;99.90;;;;;;5052196;28;20096;-38
2024/04/06 01:43:01;;;;;;;5.65;2.33;;;14.80;99.90;;;;;;5052187;28;20478;-41
2024/04/06 01:45:27;;;;;;;7.18;2.53;;;14.80;99.90;;;;;;5051999;28;20016;-44
2024/04/06 01:47:53;;;;;;;3.22;2.30;;;14.80;99.90;;;;;;5051103;28;20024;-36
2024/04/06 01:50:18;;;;;;;5.85;2.80;;;14.80;99.90;;;;;;5032085;28;20028;-38
2024/04/06 01:52:44;;;;;;;3.75;2.17;;;14.80;99.90;;;;;;5032391;28;20425;-37
2024/04/06 01:55:10;;;;;;;5.18;2.30;;;14.80;99.90;;;;;;5032087;28;20383;-37
2024/04/06 01:57:35;;;;;;;4.57;2.38;;;14.90;99.90;;;;;;5044603;28;20029;-36
2024/04/06 02:00:01;;;;;;;2.45;2.00;;;14.90;99.90;;;;;;5052386;28;20466;-37
2024/04/06 02:02:26;;;;;;;2.80;2.10;;;14.80;99.90;;;;;;5052142;28;20488;-37
2024/04/06 02:04:52;;;;;;;4.38;2.22;;;14.80;99.90;;;;;;5050686;28;20028;-40
2024/04/06 02:07:18;;;;;;;9.27;2.35;;;14.80;99.90;;;;;;5052029;28;20029;-50
2024/04/06 02:09:43;;;;;;;6.40;2.45;;;14.80;99.90;;;;;;5052052;28;20021;-52
2024/04/06 02:12:10;;;;;;;5.82;2.28;;;14.80;99.90;;;;;;5051938;28;20432;-51
2024/04/06 02:14:35;;;;;;;5.18;2.58;;;14.70;99.90;;;;;;5055292;28;20028;-36
2024/04/06 02:17:05;;;;;;;5.82;2.42;;;14.80;99.90;;;;;;5056448;28;20374;-37
2024/04/06 02:19:31;;;;;;;4.85;1.85;;;14.80;99.90;;;;;;5056046;28;20025;-36
2024/04/06 02:21:57;;;;;;;9.85;3.05;;;14.80;99.90;;;;;;5056039;28;20040;-37
2024/04/06 02:24:41;;;;;;;2.60;2.00;;;14.80;99.90;;;;;;5054537;28;20052;-36
2024/04/06 02:27:07;;;;;;;3.45;2.30;;;14.80;99.90;;;;;;5055705;28;20033;-38
2024/04/06 02:29:33;;;;;;;4.20;2.15;;;14.70;99.90;;;;;;5056114;28;20482;-37
2024/04/06 02:31:59;;;;;;;3.30;2.42;;;14.60;99.90;;;;;;5055737;28;20036;-36
2024/04/06 02:34:24;;;;;;;5.97;2.65;;;14.60;99.90;;;;;;5055631;28;20029;-38
2024/04/06 02:36:50;;;;;;;6.32;3.22;;;14.50;99.90;;;;;;5055736;28;20386;-36
2024/04/06 02:39:16;;;;;;;2.45;2.20;;;14.50;99.90;;;;;;5055878;28;20028;-37
2024/04/06 02:41:41;;;;;;;4.43;2.38;;;14.50;99.90;;;;;;5055519;28;20479;-36
2024/04/06 02:44:07;;;;;;;8.52;2.72;;;14.60;99.90;;;;;;5055526;28;20424;-38
2024/04/06 02:46:33;;;;;;;3.40;2.63;;;14.50;99.90;;;;;;5055426;28;20470;-38
2024/04/06 02:48:59;;;;;;;6.13;3.00;;;14.50;99.90;;;;;;5055130;28;20025;-38
2024/04/06 02:51:25;;;;;;;5.85;2.75;;;14.50;99.90;;;;;;5055443;28;20028;-39
2024/04/06 02:53:51;;;;;;;4.22;2.20;;;14.50;99.90;;;;;;5055062;28;20025;-37
2024/04/06 02:56:16;;;;;;;4.90;2.35;;;14.50;99.90;;;;;;5055472;28;20025;-36
2024/04/06 02:58:42;;;;;;;2.97;2.13;;;14.50;99.90;;;;;;5055188;28;20037;-36
2024/04/06 03:01:08;;;;;;;2.83;1.92;;;14.50;99.90;;;;;;5054035;28;20436;-40
2024/04/06 03:03:34;;;;;;;11.07;2.28;;;14.50;99.90;;;;;;5055161;28;20033;-36
2024/04/06 03:06:00;;;;;;;5.55;2.30;;;14.50;99.90;;;;;;5055347;28;20081;-36
2024/04/06 03:08:26;;;;;;;7.80;2.28;;;14.50;99.90;;;;;;5055264;28;20025;-36
2024/04/06 03:10:52;;;;;;;2.80;2.30;;;14.50;99.90;;;;;;5054881;28;20505;-37
2024/04/06 03:13:19;;;;;;;4.47;2.33;;;14.50;99.90;;;;;;5054833;28;20068;-38
2024/04/06 03:15:45;;;;;;;5.93;2.35;;;14.50;99.90;;;;;;5055198;28;20415;-37
2024/04/06 03:18:12;;;;;;;5.70;2.67;;;14.50;99.90;;;;;;5054908;28;20099;-36
2024/04/06 03:20:38;;;;;;;5.40;1.90;;;14.40;99.90;;;;;;5055115;28;20048;-37
2024/04/06 03:23:05;;;;;;;6.50;2.10;;;14.40;99.90;;;;;;5054140;28;20024;-37
2024/04/06 03:25:32;;;;;;;5.63;1.90;;;14.40;99.90;;;;;;5035161;28;20557;-36
2024/04/06 03:27:59;;;;;;;3.30;2.10;;;14.40;99.90;;;;;;5051149;28;20409;-36
2024/04/06 03:30:25;;;;;;;5.57;1.95;;;14.40;99.90;;;;;;5054729;28;20025;-37
2024/04/06 03:32:52;;;;;;;4.05;1.90;;;14.40;99.90;;;;;;5054553;28;20064;-36
2024/04/06 03:35:18;;;;;;;6.28;2.10;;;14.40;99.90;;;;;;5053179;28;20025;-37
2024/04/06 03:37:48;;;;;;;3.78;2.10;;;14.40;99.90;;;;;;5054572;28;20388;-37
2024/04/06 03:40:15;;;;;;;2.45;1.90;;;14.40;99.90;;;;;;5054662;28;20533;-37
2024/04/06 03:42:41;;;;;;;5.18;1.75;;;14.40;99.90;;;;;;5054650;28;20497;-37
2024/04/06 03:45:10;;;;;;;2.42;1.73;;;14.40;99.90;;;;;;5054178;28;20375;-37
2024/04/06 03:47:35;;;;;;;1.75;1.58;;;14.30;99.90;;;;;;5054371;28;20033;-38
2024/04/06 03:50:01;;;;;;;4.97;1.45;;;14.30;99.90;;;;;;5054186;28;20029;-37
2024/04/06 03:52:27;;;;;;;6.07;1.60;;;14.30;99.90;;;;;;5054320;28;20025;-36
2024/04/06 03:54:52;;;;;;;1.63;1.52;;;14.30;99.90;;;;;;5052738;28;20027;-37
2024/04/06 03:57:18;;;;;;;4.88;1.67;;;14.30;99.90;;;;;;5054128;28;20108;-37
2024/04/06 03:59:44;;;;;;;1.42;1.33;;;14.30;99.90;;;;;;5054124;28;20391;-38
2024/04/06 04:02:09;;;;;;;6.72;1.83;;;14.30;99.90;;;;;;5053945;28;20037;-37
2024/04/06 04:04:35;;;;;;;3.45;1.88;;;14.30;99.90;;;;;;5052646;28;20413;-36
2024/04/06 04:07:01;;;;;;;1.77;1.38;;;14.40;99.90;;;;;;5054001;28;20068;-37
2024/04/06 04:09:26;;;;;;;4.63;1.83;;;14.30;99.90;;;;;;5054022;28;20061;-36
2024/04/06 04:11:52;;;;;;;4.72;2.17;;;14.30;99.90;;;;;;5053939;28;20025;-38
2024/04/06 04:14:18;;;;;;;2.08;1.65;;;14.30;99.90;;;;;;5053832;28;20469;-38
2024/04/06 04:16:43;;;;;;;5.20;2.20;;;14.30;99.90;;;;;;5053817;28;20021;-36
2024/04/06 04:19:09;;;;;;;7.82;1.63;;;14.20;99.90;;;;;;5053627;28;20044;-36
2024/04/06 04:21:35;;;;;;;3.97;2.10;;;14.20;99.90;;;;;;5054318;28;20025;-36
2024/04/06 04:24:00;;;;;;;4.63;2.00;;;14.10;99.90;;;;;;5053726;28;20041;-36
2024/04/06 04:26:27;;;;;;;1.85;1.75;;;14.00;99.90;;;;;;5053667;28;20025;-37
2024/04/06 04:28:52;;;;;;;2.08;1.80;;;14.00;99.90;;;;;;5053526;28;20073;-36
2024/04/06 04:31:18;;;;;;;7.50;1.70;;;14.00;99.90;;;;;;5052260;28;20056;-37
2024/04/06 04:33:44;;;;;;;5.60;1.92;;;14.00;99.90;;;;;;5053375;28;20033;-35
2024/04/06 04:36:12;;;;;;;2.63;1.75;;;14.00;99.90;;;;;;5052625;28;20025;-37
2024/04/06 04:38:37;;;;;;;;;;;14.00;99.90;;;;;;5054087;28;20029;-37
2024/04/06 04:41:03;;;;;;;2.40;2.13;;;14.00;99.90;;;;;;5053363;28;19909;-52
2024/04/06 04:43:29;;;;;;;5.80;2.13;;;14.00;99.90;;;;;;5053354;28;20033;-51
2024/04/06 04:45:56;;;;;;;7.25;1.90;;;14.00;99.90;;;;;;5053233;28;20108;-58
2024/04/06 04:48:23;;;;;;;2.38;1.95;;;14.00;99.90;;;;;;5053449;28;20029;-50
2024/04/06 04:50:49;;;;;;;4.18;1.92;;;14.00;99.90;;;;;;5052960;28;20401;-47
2024/04/06 04:53:14;;;;;;;2.60;2.00;;;14.00;99.90;;;;;;5052846;28;20132;-51
2024/04/06 04:55:40;;;;;;;3.03;2.00;;;13.90;99.90;;;;;;5053002;28;20028;-52
2024/04/06 04:58:06;;;;;;;2.92;2.33;;;13.90;99.90;;;;;;5053027;28;20028;-53
2024/04/06 05:00:31;;;;;;;4.30;2.22;;;13.90;99.90;;;;;;5052986;28;20497;-53
2024/04/06 05:02:57;;;;;;;4.10;1.92;;;13.80;99.90;;;;;;5052881;28;20393;-50
2024/04/06 05:05:23;;;;;;;7.88;2.17;;;13.80;99.90;;;;;;5052943;28;20064;-46
2024/04/06 05:07:49;;;;;;;6.00;2.28;;;13.90;99.90;;;;;;5052744;28;20381;-47
2024/04/06 05:10:14;;;;;;;4.30;1.50;;;13.90;99.90;;;;;;5052765;28;20021;-53
2024/04/06 05:12:40;;;;;;;9.77;2.35;;;13.80;99.90;;;;;;5052710;28;20033;-57
2024/04/06 05:15:06;;;;;;;3.95;2.42;;;13.80;99.90;;;;;;5052757;28;20048;-52
2024/04/06 05:17:32;;;;;;;3.25;2.30;;;13.80;99.90;;;;;;5052681;28;20409;-52
2024/04/06 05:19:57;;;;;;;3.42;2.25;;;13.80;99.90;;;;;;5051278;28;20033;-59
2024/04/06 05:22:23;;;;;;;8.70;2.05;;;13.80;99.90;;;;;;5052532;28;20056;-47
2024/04/06 05:24:49;;;;;;;4.68;2.20;;;13.80;99.90;;;;;;5052471;28;20478;-49
2024/04/06 05:27:14;;;;;;;6.93;2.58;;;13.70;99.90;;;;;;5052257;28;20407;-52
2024/04/06 05:29:40;;;;;;;3.72;1.98;;;13.70;99.90;;;;;;5051105;28;20142;-54
2024/04/06 05:32:06;;;;;;;2.00;1.80;;;13.80;99.90;;;;;;5052316;28;20041;-51
2024/04/06 05:34:32;;;;;;;2.38;2.08;;;13.80;99.90;;;;;;5052357;28;20415;-53
2024/04/06 05:36:57;;;;;;;3.58;2.15;;;13.90;99.90;;;;;;5052353;28;20071;-50
2024/04/06 05:39:23;;;;;;;2.58;1.80;;;13.90;99.90;;;;;;5052242;28;20036;-52
2024/04/06 05:41:49;;;;;;;4.10;2.00;;;13.80;99.90;;;;;;5052284;28;20059;-50
2024/04/06 05:44:15;;;;;;;2.83;1.95;;;13.80;99.90;;;;;;5050886;28;20030;-53
2024/04/06 05:46:40;;;;;;;6.25;2.03;;;13.90;99.90;;;;;;5052209;28;20113;-51
2024/04/06 05:49:06;;;;;;;5.30;2.25;;;13.90;99.90;;;;;;5052133;28;20448;-53
2024/04/06 05:51:32;;;;;;;4.15;2.20;;;14.00;99.90;;;;;;5052425;28;20116;-37
2024/04/06 05:53:59;;;;;;;3.03;2.03;;;14.00;99.90;;;;;;5052292;28;20523;-36
2024/04/06 05:56:25;;;;;;;2.92;2.38;;;14.10;99.90;;;;;;5052401;28;20121;-37
2024/04/06 05:58:50;;;;;;;3.95;2.40;;;14.00;99.90;;;;;;5052066;28;20521;-37
2024/04/06 06:01:16;;;;;;;4.38;1.85;;;14.10;99.90;;;;;;5051516;28;20448;-36
2024/04/06 06:03:42;;;;;;;2.88;2.25;;;14.10;99.90;;;;;;5052000;28;20043;-36
2024/04/06 06:06:08;;;;;;;5.45;2.17;;;14.20;99.90;;;;;;5052291;28;20476;-37
2024/04/06 06:08:33;;;;;;;5.45;2.42;;;14.20;99.90;;;;;;5052049;28;20112;-36
2024/04/06 06:10:59;;;;;;;6.47;2.25;;;14.30;99.90;;;;;;5051033;28;20040;-36
2024/04/06 06:13:25;;;;;;;4.65;1.80;;;14.30;99.90;;;;;;5051795;28;20063;-37
2024/04/06 06:15:50;;;;;;;4.22;2.22;;;14.30;99.90;;;;;;5050525;28;20028;-36
2024/04/06 06:18:16;;;;;;;5.05;2.28;;;14.40;99.90;;;;;;5051663;28;20067;-37
2024/04/06 06:20:41;;;;;;;2.33;2.13;;;14.50;99.90;;;;;;5050626;28;20021;-36
2024/04/06 06:23:07;;;;;;;10.65;2.25;;;14.60;99.90;;;;;;5051372;28;20033;-36
2024/04/06 06:25:33;;;;;;;4.90;2.13;;;14.60;99.90;;;;;;5051055;28;20041;-36
2024/04/06 06:27:59;;;;;;;2.78;1.95;;;14.70;99.90;;;;;;5051861;28;20041;-46
2024/04/06 06:30:25;;;;;;;4.93;2.25;;;14.80;99.90;;;;;;5051797;28;20045;-37
2024/04/06 06:32:52;;;;;;;3.50;1.80;;;14.90;99.90;;;;;;5051929;28;20025;-37
2024/04/06 06:35:17;;;;;;;3.92;2.42;;;15.00;99.90;;;;;;5051632;28;20549;-36
2024/04/06 06:37:45;;;;;;;6.65;2.17;;;15.10;99.90;;;;;;5051771;28;20109;-36
2024/04/06 06:40:11;;;;;;;3.20;2.60;;;15.10;99.90;;;;;;5051870;28;20492;-37
2024/04/06 06:42:37;;;;;;;4.72;2.53;;;15.20;99.90;;;;;;5051792;28;20096;-37
2024/04/06 06:45:05;;;;;;;3.20;2.13;;;15.20;99.90;;;;;;5051577;28;20029;-40
2024/04/06 06:47:31;;;;;;;;;;;15.40;99.90;;;;;;5052348;28;20536;-36
2024/04/06 06:49:56;;;;;;;2.47;2.17;;;15.60;99.90;;;;;;5051721;28;19908;-37
2024/04/06 06:52:22;;;;;;;5.05;2.90;;;15.60;99.90;;;;;;5051474;28;20398;-36
2024/04/06 06:54:48;;;;;;;4.50;2.28;;;15.80;99.90;;;;;;5051498;28;20128;-36
2024/04/06 06:57:14;;;;;;;2.45;2.25;;;15.90;99.90;;;;;;5051776;28;20408;-38
2024/04/06 06:59:39;;;;;;;8.55;1.80;;;16.00;99.90;;;;;;5053133;28;20079;-38
2024/04/06 07:02:05;;;;;;;5.88;1.90;;;16.20;99.90;;;;;;5055279;28;20039;-51
2024/04/06 07:04:31;;;;;;;4.65;2.17;;;16.30;99.90;;;;;;5055319;28;20037;-52
2024/04/06 07:06:56;;;;;;;1.80;1.70;;;16.40;99.90;;;;;;5055220;28;20082;-53
2024/04/06 07:09:22;;;;;;;2.28;1.95;;;16.40;99.90;;;;;;5055094;28;20106;-53
2024/04/06 07:11:47;;;;;;;6.55;2.58;;;16.50;99.90;;;;;;5054884;28;20033;-52
2024/04/06 07:14:13;;;;;;;1.98;1.70;;;16.70;99.90;;;;;;5054888;28;20029;-51
2024/04/06 07:16:39;;;;;;;5.47;2.38;;;16.80;99.90;;;;;;5054949;28;20493;-51
2024/04/06 07:19:06;;;;;;;4.18;1.85;;;16.90;99.90;;;;;;5052199;28;20048;-49
2024/04/06 07:21:32;;;;;;;1.85;1.70;;;17.00;99.90;;;;;;5055024;28;20021;-52
2024/04/06 07:23:58;;;;;;;1.85;1.55;;;17.20;99.90;;;;;;5054469;28;20021;-52
2024/04/06 07:26:24;;;;;;;10.57;1.80;;;17.30;99.90;;;;;;5054756;28;20500;-52
2024/04/06 07:28:51;;;;;;;2.80;2.00;;;17.30;99.90;;;;;;5054376;28;20120;-56
2024/04/06 07:31:17;;;;;;;4.13;1.73;;;17.40;99.90;;;;;;5054722;28;20490;-53
2024/04/06 07:33:42;;;;;;;3.63;1.73;;;17.50;99.90;;;;;;5054634;28;20044;-57
2024/04/06 07:36:08;;;;;;;6.15;2.00;;;17.50;99.90;;;;;;5054239;28;20017;-50
2024/04/06 07:38:34;;;;;;;2.53;1.73;;;17.50;99.90;;;;;;5053132;28;20116;-54
2024/04/06 07:41:05;;;;;;;3.97;2.15;;;17.50;99.90;;;;;;5054279;28;20109;-52
2024/04/06 07:43:30;;;;;;;6.32;1.60;;;17.60;99.90;;;;;;5054412;28;20029;-52
2024/04/06 07:45:56;;;;;;;2.63;1.38;;;17.70;99.90;;;;;;5054367;28;20033;-54
2024/04/06 07:48:22;;;;;;;1.70;1.55;;;17.70;99.90;;;;;;5054287;28;20059;-52
2024/04/06 07:50:48;;;;;;;3.63;1.67;;;17.80;99.90;;;;;;5054090;28;20048;-53
2024/04/06 07:53:14;;;;;;;3.33;2.13;;;17.90;99.90;;;;;;5054262;28;20025;-54
2024/04/06 07:55:40;;;;;;;5.50;1.63;;;18.10;99.90;;;;;;5053920;28;20032;-56
2024/04/06 07:58:06;;;;;;;5.15;1.77;;;18.20;99.90;;;;;;5052781;28;20032;-50
2024/04/06 08:00:33;;;;;;;5.82;1.67;;;18.30;99.90;;;;;;5054085;28;20040;-53
2024/04/06 08:02:59;;;;;;;4.65;1.92;;;18.40;99.90;;;;;;5054043;28;20033;-53
2024/04/06 08:05:24;;;;;;;5.72;1.73;;;18.30;99.90;;;;;;5053998;28;20025;-53
2024/04/06 08:07:50;;;;;;;7.82;2.47;;;18.40;99.90;;;;;;5046342;28;20033;-53
2024/04/06 08:10:20;;;;;;;6.32;1.95;;;18.40;99.90;;;;;;5039714;28;20033;-54
2024/04/06 08:12:47;;;;;;;7.65;2.03;;;18.50;99.90;;;;;;5044514;28;20481;-53
2024/04/06 08:15:14;;;;;;;2.37;1.60;;;18.50;99.90;;;;;;5053575;28;20083;-53
2024/04/06 08:17:42;;;;;;;6.50;0.90;;;18.60;99.90;;;;;;5053732;28;20017;-54
2024/04/06 08:20:08;;;;;;;4.63;2.78;;;18.80;99.90;;;;;;5053735;28;20049;-54
2024/04/06 08:22:43;;;;;;;4.68;1.90;;;18.90;99.90;;;;;;5053926;28;20155;-52
2024/04/06 08:25:10;;;;;;;4.25;1.60;;;18.90;99.90;;;;;;5053577;28;20041;-51
2024/04/06 08:27:37;;;;;;;2.67;1.27;;;19.10;99.90;;;;;;5053321;28;20037;-53
2024/04/06 08:30:07;;;;;;;1.67;1.20;;;19.20;99.90;;;;;;5038820;28;20521;-53
2024/04/06 08:32:36;;;;;;;2.30;0.88;;;19.30;99.90;;;;;;5038747;28;20059;-54
2024/04/06 08:35:02;;;;;;;4.50;1.33;;;19.40;99.90;;;;;;5053489;28;20551;-54
2024/04/06 08:37:28;;;;;;;1.52;0.90;;;19.50;99.90;;;;;;5054597;28;20029;-50
2024/04/06 08:39:53;;;;;;;3.08;0.90;;;19.70;99.90;;;;;;5053297;28;20025;-51
2024/04/06 08:42:23;;;;;;;6.93;1.63;;;19.90;99.90;;;;;;5053471;28;20021;-52
2024/04/06 08:44:49;;;;;;;4.35;1.20;;;20.10;99.90;;;;;;5053285;28;20473;-52
2024/04/06 08:47:19;;;;;;;3.20;1.50;;;20.30;99.90;;;;;;5054510;28;20369;-55
2024/04/06 08:49:46;;;;;;;3.92;1.70;;;20.30;99.90;;;;;;5051063;28;20029;-55
2024/04/06 08:52:12;;;;;;;5.72;1.40;;;20.30;99.90;;;;;;5056035;28;20393;-50
2024/04/06 08:54:38;;;;;;;1.73;1.17;;;20.40;99.90;;;;;;5058288;28;20020;-53
2024/04/06 08:57:04;;;;;;;3.45;1.00;;;20.50;99.90;;;;;;5072967;28;20036;-50
2024/04/06 08:59:34;;;;;;;1.90;0.90;;;20.60;99.90;;;;;;5071745;28;20495;-53
2024/04/06 09:02:01;;;;;;;4.07;0.90;;;20.70;99.90;;;;;;5058858;28;20426;-54
2024/04/06 09:04:27;;;;;;;4.82;1.13;;;20.80;99.90;;;;;;5053002;28;20100;-53
2024/04/06 09:06:53;;;;;;;4.25;1.25;;;20.80;99.90;;;;;;5060166;28;20107;-53
2024/04/06 09:09:19;;;;;;;2.30;1.00;;;20.80;99.90;;;;;;5061713;28;20516;-52
2024/04/06 09:11:44;;;;;;;3.00;1.20;;;20.80;99.90;;;;;;5071000;28;20017;-52
2024/04/06 09:14:11;;;;;;;3.60;0.80;;;20.80;99.90;;;;;;5062135;28;20496;-53
2024/04/06 09:16:39;;;;;;;2.10;1.55;;;20.80;99.90;;;;;;5072633;28;20100;-52
2024/04/06 09:19:05;;;;;;;1.23;0.88;;;20.80;99.90;;;;;;5059539;28;20525;-51
2024/04/06 09:21:31;;;;;;;4.40;0.95;;;20.90;99.90;;;;;;5052734;28;20021;-55
2024/04/06 09:23:57;;;;;;;5.90;1.27;;;21.00;99.90;;;;;;5052348;28;20075;-53
2024/04/06 09:26:23;;;;;;;1.58;0.88;;;21.10;99.90;;;;;;5052468;28;20027;-52
2024/04/06 09:28:53;;;;;;;3.33;1.08;;;21.30;99.90;;;;;;5052295;28;20044;-51
2024/04/06 09:31:22;;;;;;;2.70;1.33;;;21.40;99.90;;;;;;5052373;28;20029;-49
2024/04/06 09:33:53;;;;;;;2.70;0.95;;;21.40;99.90;;;;;;5052562;28;20564;-54
2024/04/06 09:36:20;;;;;;;1.95;0.98;;;21.30;99.90;;;;;;5050816;28;20021;-53
2024/04/06 09:38:49;;;;;;;1.98;1.10;;;21.30;99.90;;;;;;5043199;28;20025;-52
2024/04/06 09:41:17;;;;;;;6.47;1.38;;;21.40;99.90;;;;;;5044440;28;20036;-51
2024/04/06 09:43:48;;;;;;;3.15;1.05;;;21.50;99.90;;;;;;5051535;28;20533;-50
2024/04/06 09:46:15;;;;;;;2.15;0.80;;;21.60;99.90;;;;;;5052316;28;20212;-53
2024/04/06 09:48:44;;;;;;;2.95;1.08;;;21.70;99.90;;;;;;5051990;28;20021;-51
2024/04/06 09:51:10;;;;;;;2.10;0.90;;;21.70;99.90;;;;;;5043663;28;20040;-48
2024/04/06 09:53:38;;;;;;;3.10;0.95;;;21.70;99.90;;;;;;5051211;28;20021;-53
2024/04/06 09:56:05;;;;;;;4.38;1.20;;;21.70;99.90;;;;;;5048087;28;20473;-51
2024/04/06 09:58:33;;;;;;;1.20;0.80;;;21.70;99.90;;;;;;5051798;28;20504;-51
2024/04/06 10:01:15;;;;;;;2.35;1.10;;;21.70;99.90;;;;;;5052333;28;20028;-55
2024/04/06 10:03:46;;;;;;;2.85;0.80;;;21.80;99.90;;;;;;5052027;28;20444;-52
2024/04/06 10:06:16;;;;;;;3.72;1.10;;;22.00;99.90;;;;;;5050915;28;20033;-58
2024/04/06 10:08:50;;;;;;;4.55;1.10;;;22.30;99.90;;;;;;5052037;28;20509;-54
2024/04/06 10:11:28;;;;;;;3.40;1.10;;;22.40;99.90;;;;;;5050915;28;20116;-56
2024/04/06 10:13:57;;;;;;;2.15;1.05;;;22.40;99.90;;;;;;5051813;28;20111;-53
2024/04/06 10:16:26;;;;;;;4.63;1.02;;;22.30;99.90;;;;;;5048724;28;20111;-52
2024/04/06 10:18:54;;;;;;;2.35;0.90;;;22.30;99.90;;;;;;5052061;28;20351;-51
2024/04/06 10:21:20;;;;;;;4.97;1.20;;;22.30;99.90;;;;;;5051715;28;20095;-52
2024/04/06 10:23:47;;;;;;;1.50;0.85;;;22.30;99.90;;;;;;5051797;28;20037;-53
2024/04/06 10:26:16;;;;;;;2.83;0.77;;;22.40;99.90;;;;;;5045788;28;20029;-46
2024/04/06 10:28:44;;;;;;;6.32;1.38;;;22.50;99.90;;;;;;5051790;28;20515;-53
2024/04/06 10:31:10;;;;;;;2.05;1.00;;;22.50;99.90;;;;;;5051302;28;20035;-52
2024/04/06 10:33:39;;;;;;;1.52;1.08;;;22.50;99.90;;;;;;5050634;28;20033;-40
2024/04/06 10:36:10;;;;;;;4.25;0.88;;;22.50;99.90;;;;;;5055168;28;20429;-39
2024/04/06 10:38:36;;;;;;;1.20;1.10;;;22.60;99.90;;;;;;5055609;28;20108;-39
2024/04/06 10:41:03;;;;;;;2.93;1.00;;;22.70;99.90;;;;;;5055595;28;20055;-39
2024/04/06 10:43:35;;;;;;;1.52;1.10;;;22.90;99.90;;;;;;5055267;28;20267;-39
2024/04/06 10:46:04;;;;;;;7.05;0.93;;;23.10;99.90;;;;;;5055022;28;20525;-38
2024/04/06 10:48:30;;;;;;;1.77;0.85;;;23.30;99.90;;;;;;5055309;28;20445;-38
2024/04/06 10:50:58;;;;;;;5.93;1.40;;;23.40;99.90;;;;;;5053628;28;20487;-40
2024/04/06 10:53:25;;;;;;;1.55;0.93;;;23.40;99.90;;;;;;5055216;28;20082;-42
2024/04/06 10:55:52;;;;;;;3.90;1.37;;;23.40;99.90;;;;;;5055337;28;20025;-41
2024/04/06 10:58:18;;;;;;;3.10;2.03;;;23.40;99.90;;;;;;5055326;28;20497;-38
2024/04/06 11:00:46;;;;;;;1.15;0.82;;;23.50;99.90;;;;;;5053410;28;20076;-40
2024/04/06 11:03:12;;;;;;;;;;;23.60;99.90;;;;;;5046765;28;20017;-38
2024/04/06 11:05:38;;;;;;;2.50;0.73;;;23.60;99.90;;;;;;5054656;28;19908;-39
2024/04/06 11:08:05;;;;;;;1.58;1.13;;;23.60;99.90;;;;;;5055220;28;20481;-39
2024/04/06 11:10:31;;;;;;;1.23;0.70;;;23.70;99.90;;;;;;5055297;28;20032;-42
2024/04/06 11:12:58;;;;;;;1.55;0.85;;;23.80;99.90;;;;;;5053307;28;20114;-39
2024/04/06 11:15:25;;;;;;;4.30;0.65;;;23.80;99.90;;;;;;5052447;28;20079;-41
2024/04/06 11:17:53;;;;;;;;;;;23.80;99.90;;;;;;5055324;28;20074;-39
2024/04/06 11:20:19;;;;;;;1.65;0.80;;;23.80;99.90;;;;;;5054751;28;20000;-40
2024/04/06 11:22:45;;;;;;;5.97;1.35;;;23.90;99.90;;;;;;5054711;28;20150;-39
2024/04/06 11:25:19;;;;;;;1.48;0.60;;;24.10;99.90;;;;;;5054788;28;20032;-44
2024/04/06 11:27:49;;;;;;;1.08;0.88;;;24.40;99.90;;;;;;5054531;28;20092;-44
2024/04/06 11:30:18;;;;;;;1.90;0.70;;;24.60;99.90;;;;;;5053452;28;20040;-38
2024/04/06 11:32:44;;;;;;;5.78;0.80;;;24.50;99.90;;;;;;5054573;28;20127;-40
2024/04/06 11:35:10;;;;;;;3.40;1.17;;;24.40;99.90;;;;;;5054347;28;20037;-50
2024/04/06 11:37:38;;;;;;;0.93;0.73;;;24.30;99.90;;;;;;5054517;28;20465;-38
2024/04/06 11:40:04;;;;;;;0.88;0.80;;;24.30;99.90;;;;;;5054313;28;20021;-38
2024/04/06 11:42:30;;;;;;;2.90;1.05;;;24.30;99.90;;;;;;5054845;28;20025;-51
2024/04/06 11:44:55;;;;;;;3.65;1.45;;;24.30;99.90;;;;;;5054453;28;20449;-52
2024/04/06 11:47:21;;;;;;;2.95;0.80;;;24.30;99.90;;;;;;5054437;28;20025;-54
2024/04/06 11:49:48;;;;;;;1.08;0.60;;;24.20;99.90;;;;;;5054100;28;20013;-40
2024/04/06 11:52:14;;;;;;;;;;;24.30;99.90;;;;;;5044197;28;20486;-46
2024/04/06 11:54:42;;;;;;;2.38;0.70;;;24.30;99.90;;;;;;5034077;28;19908;-38
2024/04/06 11:57:07;;;;;;;;;;;24.40;99.90;;;;;;5045678;28;20056;-39
2024/04/06 11:59:33;;;;;;;3.33;0.70;;;24.50;99.90;;;;;;5052726;28;19948;-40
2024/04/06 12:01:58;;;;;;;0.85;0.63;;;24.50;99.90;;;;;;5054251;28;20465;-41
2024/04/06 12:04:24;;;;;;;4.35;1.40;;;24.50;99.90;;;;;;5057894;28;20021;-42
2024/04/06 12:06:52;;;;;;;2.28;0.60;;;24.40;99.90;;;;;;5069132;28;20032;-38
2024/04/06 12:09:18;;;;;;;2.05;0.30;;;24.30;99.90;;;;;;5058508;28;20021;-44
2024/04/06 12:11:44;;;;;;;1.30;0.70;;;24.40;99.90;;;;;;5054156;28;20496;-40
2024/04/06 12:14:09;;;;;;;3.50;0.93;;;24.40;99.90;;;;;;5053561;28;20029;-40
2024/04/06 12:16:35;;;;;;;0.85;0.70;;;24.50;99.90;;;;;;5053968;28;20029;-40
2024/04/06 12:19:00;;;;;;;1.83;0.90;;;24.50;99.90;;;;;;5054037;28;20053;-40
2024/04/06 12:21:26;;;;;;;2.42;0.77;;;24.60;99.90;;;;;;5053192;28;20024;-39
2024/04/06 12:23:52;;;;;;;3.50;0.88;;;24.50;99.90;;;;;;5053122;28;20027;-39
2024/04/06 12:26:18;;;;;;;0.95;0.60;;;24.50;99.90;;;;;;5052743;28;20386;-39
2024/04/06 12:28:44;;;;;;;1.38;0.90;;;24.70;99.90;;;;;;5052707;28;20473;-40
2024/04/06 12:31:10;;;;;;;5.40;0.60;;;24.90;99.90;;;;;;5053538;28;20477;-39
2024/04/06 12:33:36;;;;;;;0.57;0.57;;;25.00;99.90;;;;;;5053263;28;20083;-42
2024/04/06 12:36:03;;;;;;;2.42;0.70;;;25.10;99.90;;;;;;5052300;28;20469;-40
2024/04/06 12:38:28;;;;;;;3.40;1.67;;;25.20;99.90;;;;;;5053577;28;20469;-39
2024/04/06 12:40:55;;;;;;;0.55;0.52;;;25.10;99.90;;;;;;5053402;28;20029;-39
2024/04/06 12:43:21;;;;;;;1.40;0.70;;;25.00;99.90;;;;;;5053191;28;20029;-41